createdAt,value
2018-01-06T00:01:53.959Z,99090.88
2018-01-06T00:04:21.394Z,99091.28
2018-01-06T00:06:48.858Z,99101.20
2018-01-06T00:09:16.372Z,99104.36
2018-01-06T00:11:43.814Z,99119.52
2018-01-06T00:14:11.243Z,99114.11
2018-01-06T00:16:39.505Z,99110.67
2018-01-06T00:19:07.089Z,99101.27
2018-01-06T00:21:58.233Z,99108.28
2018-01-06T00:24:25.680Z,99109.34
2018-01-06T00:26:53.143Z,99115.92
2018-01-06T00:29:20.629Z,99123.30
2018-01-06T00:31:48.147Z,99131.48
2018-01-06T00:34:15.575Z,99117.38
2018-01-06T00:36:43.030Z,99118.56
2018-01-06T00:39:10.491Z,99125.83
2018-01-06T00:41:37.945Z,99121.94
2018-01-06T00:44:05.387Z,99123.80
2018-01-06T00:46:32.839Z,99130.67
2018-01-06T00:49:00.315Z,99141.06
2018-01-06T00:51:27.762Z,99150.02
2018-01-06T00:53:55.230Z,99143.91
2018-01-06T00:56:22.650Z,99152.14
2018-01-06T00:58:50.082Z,99161.21
2018-01-06T01:01:17.528Z,99177.81
2018-01-06T01:03:44.978Z,99170.76
2018-01-06T01:06:12.444Z,99169.87
2018-01-06T01:08:39.989Z,99171.59
2018-01-06T01:11:07.421Z,99178.39
2018-01-06T01:13:34.915Z,99171.16
2018-01-06T01:16:02.330Z,99164.59
2018-01-06T01:18:29.769Z,99170.65
2018-01-06T01:20:57.196Z,99174.87
2018-01-06T01:23:24.655Z,99171.41
2018-01-06T01:25:52.140Z,99174.83
2018-01-06T01:28:19.566Z,99169.02
2018-01-06T01:30:47.310Z,99172.98
2018-01-06T01:33:14.756Z,99173.36
2018-01-06T01:35:42.205Z,99178.28
2018-01-06T01:38:09.666Z,99178.75
2018-01-06T01:40:37.104Z,99183.46
2018-01-06T01:43:04.569Z,99176.16
2018-01-06T01:45:31.997Z,99176.45
2018-01-06T01:47:59.459Z,99178.21
2018-01-06T01:50:26.906Z,99179.34
2018-01-06T01:52:54.329Z,99173.03
2018-01-06T01:55:21.822Z,99167.08
2018-01-06T01:57:49.258Z,99172.22
2018-01-06T02:00:16.764Z,99176.05
2018-01-06T02:02:44.211Z,99174.27
2018-01-06T02:05:11.671Z,99179.67
2018-01-06T02:07:39.225Z,99182.25
2018-01-06T02:10:06.699Z,99183.42
2018-01-06T02:12:34.280Z,99187.45
2018-01-06T02:15:01.745Z,99181.25
2018-01-06T02:17:29.185Z,99191.17
2018-01-06T02:19:56.623Z,99184.11
2018-01-06T02:22:24.096Z,99185.44
2018-01-06T02:24:51.609Z,99200.13
2018-01-06T02:27:19.056Z,99195.09
2018-01-06T02:29:46.502Z,99197.08
2018-01-06T02:32:14.204Z,99204.35
2018-01-06T02:34:41.676Z,99203.66
2018-01-06T02:37:09.117Z,99203.28
2018-01-06T02:39:36.572Z,99204.72
2018-01-06T02:42:04.016Z,99206.81
2018-01-06T02:44:31.493Z,99206.59
2018-01-06T02:46:58.975Z,99195.34
2018-01-06T02:49:26.420Z,99203.36
2018-01-06T02:51:53.876Z,99209.75
2018-01-06T02:54:22.316Z,99195.09
2018-01-06T02:56:49.824Z,99199.98
2018-01-06T02:59:17.278Z,99199.36
2018-01-06T03:01:44.719Z,99195.23
2018-01-06T03:04:12.144Z,99206.34
2018-01-06T03:06:39.631Z,99210.96
2018-01-06T03:09:07.057Z,99200.90
2018-01-06T03:11:34.533Z,99200.94
2018-01-06T03:14:01.992Z,99201.94
2018-01-06T03:16:30.181Z,99203.63
2018-01-06T03:18:57.665Z,99209.06
2018-01-06T03:21:25.120Z,99218.21
2018-01-06T03:23:52.557Z,99218.32
2018-01-06T03:26:19.999Z,99217.00
2018-01-06T03:28:47.476Z,99215.56
2018-01-06T03:31:14.956Z,99212.11
2018-01-06T03:33:42.428Z,99218.98
2018-01-06T03:36:09.886Z,99222.21
2018-01-06T03:38:37.597Z,99217.32
2018-01-06T03:41:05.691Z,99220.08
2018-01-06T03:43:33.222Z,99226.84
2018-01-06T03:46:00.743Z,99232.23
2018-01-06T03:48:28.175Z,99230.77
2018-01-06T03:50:55.619Z,99232.23
2018-01-06T03:53:23.107Z,99237.78
2018-01-06T03:55:50.552Z,99236.61
2018-01-06T03:58:17.999Z,99234.88
2018-01-06T04:00:45.460Z,99245.20
2018-01-06T04:03:12.902Z,99246.13
2018-01-06T04:05:40.354Z,99252.11
2018-01-06T04:08:07.828Z,99249.98
2018-01-06T04:10:35.972Z,99252.92
2018-01-06T04:13:03.461Z,99245.34
2018-01-06T04:15:30.937Z,99242.85
2018-01-06T04:17:58.432Z,99248.52
2018-01-06T04:20:25.854Z,99244.32
2018-01-06T04:22:53.335Z,99247.23
2018-01-06T04:25:21.679Z,99248.44
2018-01-06T04:27:49.191Z,99251.01
2018-01-06T04:30:18.747Z,99251.01
2018-01-06T04:32:46.231Z,99248.44
2018-01-06T04:35:14.396Z,99255.50
2018-01-06T04:37:41.907Z,99265.16
2018-01-06T04:40:09.455Z,99266.59
2018-01-06T04:42:36.916Z,99271.36
2018-01-06T04:45:04.365Z,99269.27
2018-01-06T04:47:31.849Z,99263.58
2018-01-06T04:50:00.228Z,99265.30
2018-01-06T04:52:27.672Z,99260.75
2018-01-06T04:54:55.984Z,99267.25
2018-01-06T04:57:24.018Z,99277.57
2018-01-06T04:59:51.533Z,99284.63
2018-01-06T05:02:18.960Z,99284.40
2018-01-06T05:04:46.437Z,99281.02
2018-01-06T05:07:13.870Z,99293.58
2018-01-06T05:09:41.318Z,99289.61
2018-01-06T05:12:08.744Z,99296.62
2018-01-06T05:14:36.225Z,99304.30
2018-01-06T05:17:03.645Z,99313.22
2018-01-06T05:19:31.096Z,99316.38
2018-01-06T05:21:58.798Z,99313.77
2018-01-06T05:24:27.135Z,99311.27
2018-01-06T05:26:54.548Z,99312.05
2018-01-06T05:29:21.991Z,99310.72
2018-01-06T05:31:49.428Z,99321.30
2018-01-06T05:34:16.881Z,99328.28
2018-01-06T05:36:44.357Z,99326.56
2018-01-06T05:39:11.829Z,99330.37
2018-01-06T05:41:39.263Z,99340.92
2018-01-06T05:44:06.724Z,99344.45
2018-01-06T05:46:34.183Z,99340.20
2018-01-06T05:49:01.644Z,99341.78
2018-01-06T05:51:29.258Z,99344.97
2018-01-06T05:53:56.680Z,99345.59
2018-01-06T05:56:25.025Z,99341.59
2018-01-06T05:58:52.487Z,99342.62
2018-01-06T06:01:19.908Z,99338.03
2018-01-06T06:03:47.365Z,99344.09
2018-01-06T06:06:14.828Z,99346.22
2018-01-06T06:08:42.306Z,99343.75
2018-01-06T06:11:09.773Z,99342.55
2018-01-06T06:13:37.228Z,99348.09
2018-01-06T06:16:04.729Z,99349.12
2018-01-06T06:18:32.206Z,99354.70
2018-01-06T06:20:59.890Z,99351.80
2018-01-06T06:23:27.433Z,99359.77
2018-01-06T06:25:54.926Z,99361.79
2018-01-06T06:28:22.381Z,99364.14
2018-01-06T06:30:49.825Z,99369.98
2018-01-06T06:33:17.282Z,99366.45
2018-01-06T06:35:44.696Z,99368.34
2018-01-06T06:38:12.207Z,99376.98
2018-01-06T06:40:39.698Z,99375.11
2018-01-06T06:43:07.159Z,99377.52
2018-01-06T06:45:34.612Z,99383.24
2018-01-06T06:48:02.087Z,99390.25
2018-01-06T06:50:29.529Z,99386.55
2018-01-06T06:52:57.094Z,99395.17
2018-01-06T06:55:24.528Z,99397.04
2018-01-06T06:57:51.983Z,99404.56
2018-01-06T07:00:24.468Z,99412.64
2018-01-06T07:02:51.954Z,99418.30
2018-01-06T07:05:19.388Z,99419.77
2018-01-06T07:07:46.843Z,99416.98
2018-01-06T07:10:14.349Z,99419.25
2018-01-06T07:12:41.848Z,99425.58
2018-01-06T07:15:09.310Z,99428.08
2018-01-06T07:17:36.760Z,99436.90
2018-01-06T07:20:04.214Z,99443.51
2018-01-06T07:22:31.693Z,99449.72
2018-01-06T07:24:59.132Z,99449.92
2018-01-06T07:27:26.652Z,99464.72
2018-01-06T07:29:54.102Z,99464.20
2018-01-06T07:32:21.925Z,99467.08
2018-01-06T07:34:49.381Z,99474.21
2018-01-06T07:37:16.836Z,99477.23
2018-01-06T07:39:44.302Z,99479.44
2018-01-06T07:42:11.829Z,99482.98
2018-01-06T07:44:39.281Z,99482.17
2018-01-06T07:47:06.797Z,99481.89
2018-01-06T07:49:34.223Z,99485.71
2018-01-06T07:52:01.714Z,99486.48
2018-01-06T07:54:29.217Z,99498.02
2018-01-06T07:56:56.731Z,99506.21
2018-01-06T07:59:24.164Z,99516.22
2018-01-06T08:01:51.628Z,99515.02
2018-01-06T08:04:19.157Z,99530.20
2018-01-06T08:06:46.592Z,99534.16
2018-01-06T08:09:14.009Z,99517.77
2018-01-06T08:11:41.516Z,99529.42
2018-01-06T08:14:09.382Z,99523.20
2018-01-06T08:16:36.846Z,99527.17
2018-01-06T08:19:04.338Z,99533.91
2018-01-06T08:21:31.862Z,99530.08
2018-01-06T08:23:59.345Z,99535.49
2018-01-06T08:26:26.806Z,99533.47
2018-01-06T08:28:54.592Z,99531.36
2018-01-06T08:31:23.236Z,99531.20
2018-01-06T08:33:51.019Z,99532.39
2018-01-06T08:36:19.423Z,99531.73
2018-01-06T08:38:47.991Z,99539.61
2018-01-06T08:44:09.008Z,99548.81
2018-01-06T08:46:36.543Z,99546.31
2018-01-06T08:49:04.114Z,99548.55
2018-01-06T08:51:32.419Z,99550.23
2018-01-06T08:53:59.889Z,99552.32
2018-01-06T08:56:27.331Z,99555.38
2018-01-06T08:58:55.611Z,99558.80
2018-01-06T09:01:23.133Z,99561.81
2018-01-06T09:03:50.649Z,99559.23
2018-01-06T09:06:18.142Z,99569.42
2018-01-06T09:08:45.630Z,99571.03
2018-01-06T09:11:13.104Z,99563.31
2018-01-06T09:13:40.656Z,99569.42
2018-01-06T09:16:08.152Z,99574.57
2018-01-06T09:18:35.646Z,99564.50
2018-01-06T09:21:03.204Z,99564.75
2018-01-06T09:23:30.735Z,99564.61
2018-01-06T09:25:58.263Z,99572.63
2018-01-06T09:28:25.893Z,99570.91
2018-01-06T09:30:53.375Z,99571.91
2018-01-06T09:33:21.088Z,99579.02
2018-01-06T09:35:48.582Z,99583.79
2018-01-06T09:38:16.183Z,99579.50
2018-01-06T09:40:43.613Z,99576.78
2018-01-06T09:43:11.086Z,99575.50
2018-01-06T09:45:38.601Z,99587.50
2018-01-06T09:48:06.134Z,99595.41
2018-01-06T09:50:33.873Z,99609.73
2018-01-06T09:53:01.560Z,99615.66
2018-01-06T09:55:29.004Z,99610.50
2018-01-06T09:57:56.498Z,99624.22
2018-01-06T10:00:23.943Z,99625.03
2018-01-06T10:02:51.399Z,99628.30
2018-01-06T10:05:18.871Z,99625.16
2018-01-06T10:07:46.814Z,99627.03
2018-01-06T10:10:14.277Z,99627.95
2018-01-06T10:12:41.761Z,99619.75
2018-01-06T10:15:09.228Z,99618.62
2018-01-06T10:17:36.694Z,99617.48
2018-01-06T10:20:04.195Z,99614.63
2018-01-06T10:22:31.678Z,99616.39
2018-01-06T10:24:59.281Z,99621.05
2018-01-06T10:27:26.733Z,99621.34
2018-01-06T10:29:54.237Z,99624.26
2018-01-06T10:32:21.773Z,99625.33
2018-01-06T10:34:49.227Z,99632.25
2018-01-06T10:37:16.774Z,99623.39
2018-01-06T10:39:44.446Z,99619.52
2018-01-06T10:42:11.938Z,99615.68
2018-01-06T10:44:39.407Z,99619.64
2018-01-06T10:47:06.913Z,99615.64
2018-01-06T10:49:34.476Z,99613.37
2018-01-06T10:52:01.962Z,99614.77
2018-01-06T10:54:29.421Z,99617.16
2018-01-06T10:56:56.920Z,99623.79
2018-01-06T10:59:24.382Z,99619.55
2018-01-06T11:01:57.418Z,99625.08
2018-01-06T11:04:24.879Z,99617.55
2018-01-06T11:06:52.449Z,99623.58
2018-01-06T11:09:19.986Z,99617.97
2018-01-06T11:11:47.431Z,99628.53
2018-01-06T11:14:14.936Z,99627.16
2018-01-06T11:16:42.374Z,99625.59
2018-01-06T11:19:10.671Z,99623.64
2018-01-06T11:21:38.146Z,99630.56
2018-01-06T11:24:05.599Z,99630.51
2018-01-06T11:26:33.085Z,99637.70
2018-01-06T11:29:00.537Z,99632.94
2018-01-06T11:31:27.987Z,99638.86
2018-01-06T11:33:55.428Z,99634.94
2018-01-06T11:36:22.910Z,99639.77
2018-01-06T11:38:50.440Z,99631.98
2018-01-06T11:41:17.920Z,99628.58
2018-01-06T11:43:45.398Z,99627.58
2018-01-06T11:46:12.855Z,99630.67
2018-01-06T11:48:40.386Z,99632.08
2018-01-06T11:51:07.902Z,99627.77
2018-01-06T11:53:35.358Z,99628.34
2018-01-06T11:56:02.796Z,99632.25
2018-01-06T11:58:30.277Z,99629.98
2018-01-06T12:00:57.724Z,99619.66
2018-01-06T12:03:25.204Z,99618.83
2018-01-06T12:05:52.774Z,99623.90
2018-01-06T12:08:20.257Z,99619.41
2018-01-06T12:10:47.761Z,99620.44
2018-01-06T12:13:15.240Z,99622.06
2018-01-06T12:15:42.928Z,99627.58
2018-01-06T12:18:10.543Z,99628.77
2018-01-06T12:20:38.726Z,99626.73
2018-01-06T12:23:06.322Z,99624.95
2018-01-06T12:25:33.870Z,99626.75
2018-01-06T12:28:01.447Z,99630.89
2018-01-06T12:30:28.930Z,99628.73
2018-01-06T12:32:56.432Z,99629.00
2018-01-06T12:35:23.925Z,99622.42
2018-01-06T12:37:51.470Z,99627.91
2018-01-06T12:40:18.970Z,99628.91
2018-01-06T12:42:46.442Z,99629.62
2018-01-06T12:45:13.876Z,99625.28
2018-01-06T12:47:41.563Z,99634.09
2018-01-06T12:50:09.031Z,99627.20
2018-01-06T12:52:36.556Z,99628.53
2018-01-06T12:55:04.043Z,99631.44
2018-01-06T12:57:31.515Z,99623.95
2018-01-06T13:00:03.945Z,99628.34
2018-01-06T13:02:33.075Z,99629.36
2018-01-06T13:05:00.517Z,99636.55
2018-01-06T13:07:28.004Z,99640.02
2018-01-06T13:09:55.501Z,99640.22
2018-01-06T13:12:23.021Z,99634.95
2018-01-06T13:14:50.515Z,99639.34
2018-01-06T13:17:18.005Z,99641.73
2018-01-06T13:19:45.510Z,99638.97
2018-01-06T13:22:12.947Z,99641.63
2018-01-06T13:24:40.425Z,99650.91
2018-01-06T13:27:07.862Z,99651.98
2018-01-06T13:29:35.345Z,99655.74
2018-01-06T13:32:02.848Z,99651.91
2018-01-06T13:34:30.532Z,99655.89
2018-01-06T13:36:58.044Z,99665.70
2018-01-06T13:39:25.530Z,99662.52
2018-01-06T13:44:46.158Z,99673.81
2018-01-06T13:47:13.609Z,99678.63
2018-01-06T13:49:41.092Z,99684.20
2018-01-06T13:52:08.537Z,99673.73
2018-01-06T13:54:36.002Z,99671.74
2018-01-06T13:57:03.508Z,99676.39
2018-01-06T13:59:30.968Z,99678.38
2018-01-06T14:01:58.426Z,99685.16
2018-01-06T14:04:25.870Z,99688.15
2018-01-06T14:06:53.368Z,99691.61
2018-01-06T14:09:20.832Z,99693.45
2018-01-06T14:11:48.632Z,99696.80
2018-01-06T14:14:16.073Z,99700.12
2018-01-06T14:16:43.547Z,99711.29
2018-01-06T14:19:11.066Z,99699.50
2018-01-06T14:21:38.523Z,99711.87
2018-01-06T14:24:05.985Z,99719.33
2018-01-06T14:26:33.445Z,99723.34
2018-01-06T14:29:00.917Z,99723.09
2018-01-06T14:31:28.364Z,99730.41
2018-01-06T14:33:55.800Z,99734.14
2018-01-06T14:36:23.264Z,99736.83
2018-01-06T14:38:52.399Z,99742.42
2018-01-06T14:41:19.948Z,99740.44
2018-01-06T14:43:47.473Z,99747.77
2018-01-06T14:46:15.048Z,99749.76
2018-01-06T14:48:43.217Z,99752.03
2018-01-06T14:51:21.355Z,99754.43
2018-01-06T14:53:49.016Z,99761.36
2018-01-06T14:56:17.577Z,99761.47
2018-01-06T14:58:45.926Z,99758.19
2018-01-06T15:01:14.049Z,99768.54
2018-01-06T15:03:42.538Z,99767.77
2018-01-06T15:06:11.364Z,99767.36
2018-01-06T15:08:39.322Z,99770.27
2018-01-06T15:11:06.775Z,99767.47
2018-01-06T15:13:34.662Z,99764.56
2018-01-06T15:16:02.179Z,99774.10
2018-01-06T15:18:30.545Z,99776.64
2018-01-06T15:21:12.303Z,99781.95
2018-01-06T15:23:39.806Z,99781.51
2018-01-06T15:26:07.315Z,99787.36
2018-01-06T15:28:34.888Z,99788.69
2018-01-06T15:31:08.493Z,99794.92
2018-01-06T15:33:36.758Z,99794.63
2018-01-06T15:36:04.305Z,99797.28
2018-01-06T15:38:31.842Z,99801.03
2018-01-06T15:43:56.915Z,99803.86
2018-01-06T15:46:24.394Z,99805.22
2018-01-06T15:48:51.924Z,99805.11
2018-01-06T15:51:20.309Z,99808.79
2018-01-06T15:53:48.083Z,99813.06
2018-01-06T15:56:15.593Z,99813.20
2018-01-06T15:58:43.082Z,99820.38
2018-01-06T16:01:10.592Z,99828.08
2018-01-06T16:03:38.090Z,99826.75
2018-01-06T16:06:05.607Z,99822.55
2018-01-06T16:08:33.124Z,99832.05
2018-01-06T16:11:05.600Z,99832.60
2018-01-06T16:13:33.073Z,99833.16
2018-01-06T16:16:00.583Z,99843.62
2018-01-06T16:18:28.081Z,99836.06
2018-01-06T16:20:56.465Z,99841.74
2018-01-06T16:23:24.324Z,99838.97
2018-01-06T16:25:51.781Z,99841.28
2018-01-06T16:28:19.214Z,99849.64
2018-01-06T16:30:46.702Z,99848.60
2018-01-06T16:33:14.290Z,99842.52
2018-01-06T16:35:41.807Z,99851.40
2018-01-06T16:38:09.317Z,99849.55
2018-01-06T16:40:37.166Z,99854.22
2018-01-06T16:43:04.690Z,99860.30
2018-01-06T16:45:32.165Z,99866.15
2018-01-06T16:47:59.680Z,99865.37
2018-01-06T16:50:27.167Z,99863.70
2018-01-06T16:52:54.687Z,99864.62
2018-01-06T16:55:22.142Z,99871.13
2018-01-06T16:57:49.756Z,99870.58
2018-01-06T17:00:18.117Z,99872.14
2018-01-06T17:02:45.595Z,99877.44
2018-01-06T17:05:13.117Z,99880.45
2018-01-06T17:07:40.635Z,99888.20
2018-01-06T17:10:13.030Z,99893.05
2018-01-06T17:12:40.597Z,99890.81
2018-01-06T17:15:08.047Z,99895.80
2018-01-06T17:17:35.534Z,99898.45
2018-01-06T17:20:03.068Z,99898.82
2018-01-06T17:22:30.788Z,99909.19
2018-01-06T17:24:58.304Z,99907.34
2018-01-06T17:27:25.913Z,99912.53
2018-01-06T17:29:53.373Z,99909.45
2018-01-06T17:32:20.911Z,99926.45
2018-01-06T17:34:48.438Z,99934.80
2018-01-06T17:37:15.988Z,99935.63
2018-01-06T17:39:43.472Z,99940.95
2018-01-06T17:42:10.954Z,99940.57
2018-01-06T17:44:38.517Z,99944.55
2018-01-06T17:47:06.260Z,99948.52
2018-01-06T17:49:35.587Z,99952.52
2018-01-06T17:55:00.208Z,99957.56
2018-01-06T17:57:29.399Z,99957.68
2018-01-06T17:59:56.884Z,99960.20
2018-01-06T18:02:24.808Z,99965.67
2018-01-06T18:04:52.287Z,99962.36
2018-01-06T18:07:19.749Z,99967.09
2018-01-06T18:09:47.437Z,99966.02
2018-01-06T18:12:15.072Z,99970.17
2018-01-06T18:14:42.727Z,99968.34
2018-01-06T18:17:10.231Z,99971.45
2018-01-06T18:19:37.711Z,99974.23
2018-01-06T18:22:05.539Z,99971.42
2018-01-06T18:24:33.005Z,99969.69
2018-01-06T18:27:00.483Z,99965.45
2018-01-06T18:29:27.969Z,99977.25
2018-01-06T18:31:56.250Z,99982.16
2018-01-06T18:34:24.071Z,99981.88
2018-01-06T18:36:51.606Z,99994.20
2018-01-06T18:42:27.057Z,100006.91
2018-01-06T18:44:55.093Z,100019.13
2018-01-06T18:47:22.604Z,100021.09
2018-01-06T18:49:50.097Z,100022.69
2018-01-06T18:52:17.588Z,100018.33
2018-01-06T18:54:45.163Z,100032.27
2018-01-06T18:57:12.651Z,100039.67
2018-01-06T18:59:40.402Z,100041.66
2018-01-06T19:02:07.876Z,100044.06
2018-01-06T19:04:35.534Z,100040.23
2018-01-06T19:07:03.013Z,100042.89
2018-01-06T19:09:30.596Z,100037.34
2018-01-06T19:11:58.096Z,100043.53
2018-01-06T19:14:26.612Z,100044.08
2018-01-06T19:16:54.115Z,100044.66
2018-01-06T19:19:21.655Z,100042.66
2018-01-06T19:21:49.188Z,100052.06
2018-01-06T19:24:16.700Z,100062.66
2018-01-06T19:26:44.278Z,100073.67
2018-01-06T19:29:11.765Z,100076.46
2018-01-06T19:31:39.297Z,100086.52
2018-01-06T19:34:06.783Z,100090.06
2018-01-06T19:36:34.439Z,100093.38
2018-01-06T19:39:01.919Z,100098.97
2018-01-06T19:41:29.538Z,100100.95
2018-01-06T19:43:57.138Z,100109.43
2018-01-06T19:46:24.754Z,100111.83
2018-01-06T19:48:52.335Z,100123.11
2018-01-06T19:51:20.081Z,100131.19
2018-01-06T19:53:47.590Z,100131.17
2018-01-06T19:56:15.994Z,100137.44
2018-01-06T19:58:43.551Z,100135.98
2018-01-06T20:01:16.082Z,100135.07
2018-01-06T20:03:43.589Z,100142.23
2018-01-06T20:06:11.097Z,100150.73
2018-01-06T20:08:38.607Z,100164.62
2018-01-06T20:11:06.116Z,100160.67
2018-01-06T20:13:33.575Z,100154.73
2018-01-06T20:16:01.556Z,100161.22
2018-01-06T20:18:29.030Z,100167.05
2018-01-06T20:20:56.618Z,100177.11
2018-01-06T20:23:24.965Z,100180.05
2018-01-06T20:25:52.493Z,100185.35
2018-01-06T20:28:20.198Z,100181.89
2018-01-06T20:30:47.725Z,100190.25
2018-01-06T20:33:15.187Z,100197.14
2018-01-06T20:35:42.740Z,100197.56
2018-01-06T20:38:10.224Z,100204.17
2018-01-06T20:40:37.852Z,100219.00
2018-01-06T20:43:05.375Z,100223.48
2018-01-06T20:45:32.924Z,100229.83
2018-01-06T20:48:00.387Z,100236.98
2018-01-06T20:50:28.599Z,100240.17
2018-01-06T20:52:56.131Z,100235.53
2018-01-06T20:55:23.681Z,100238.85
2018-01-06T20:57:51.216Z,100237.77
2018-01-06T21:00:19.188Z,100238.44
2018-01-06T21:02:47.044Z,100239.36
2018-01-06T21:05:14.540Z,100241.22
2018-01-06T21:07:42.089Z,100240.67
2018-01-06T21:10:09.728Z,100235.25
2018-01-06T21:12:37.467Z,100239.48
2018-01-06T21:15:05.024Z,100242.81
2018-01-06T21:17:32.623Z,100246.91
2018-01-06T21:20:00.212Z,100251.80
2018-01-06T21:22:27.715Z,100249.55
2018-01-06T21:24:55.281Z,100258.27
2018-01-06T21:27:22.895Z,100271.50
2018-01-06T21:29:50.598Z,100274.55
2018-01-06T21:32:18.083Z,100267.39
2018-01-06T21:34:45.645Z,100275.19
2018-01-06T21:37:13.203Z,100278.78
2018-01-06T21:39:40.789Z,100286.45
2018-01-06T21:42:08.429Z,100279.97
2018-01-06T21:44:36.109Z,100286.70
2018-01-06T21:47:03.694Z,100285.78
2018-01-06T21:49:31.199Z,100287.77
2018-01-06T21:51:58.726Z,100285.00
2018-01-06T21:54:26.246Z,100283.94
2018-01-06T21:56:53.799Z,100282.84
2018-01-06T21:59:21.298Z,100284.30
2018-01-06T22:01:50.634Z,100289.73
2018-01-06T22:04:18.198Z,100292.92
2018-01-06T22:06:45.677Z,100293.70
2018-01-06T22:09:13.226Z,100297.30
2018-01-06T22:11:40.735Z,100301.27
2018-01-06T22:14:08.833Z,100302.97
2018-01-06T22:16:36.386Z,100305.74
2018-01-06T22:19:03.980Z,100300.31
2018-01-06T22:21:31.528Z,100296.61
2018-01-06T22:23:59.050Z,100298.84
2018-01-06T22:26:26.532Z,100303.09
2018-01-06T22:28:54.058Z,100304.81
2018-01-06T22:34:13.887Z,100313.52
2018-01-06T22:36:41.386Z,100319.35
2018-01-06T22:39:08.911Z,100323.18
2018-01-06T22:41:36.648Z,100323.71
2018-01-06T22:44:04.194Z,100323.71
2018-01-06T22:46:31.723Z,100330.05
2018-01-06T22:48:59.228Z,100330.70
2018-01-06T22:51:26.719Z,100339.18
2018-01-06T22:53:54.218Z,100339.04
2018-01-06T22:56:21.688Z,100347.52
2018-01-06T22:58:49.166Z,100354.37
2018-01-06T23:01:21.676Z,100358.31
2018-01-06T23:03:49.195Z,100355.39
2018-01-06T23:06:16.682Z,100359.48
2018-01-06T23:08:44.194Z,100358.95
2018-01-06T23:11:11.671Z,100368.19
2018-01-06T23:13:39.209Z,100372.42
2018-01-06T23:16:06.662Z,100367.13
2018-01-06T23:18:34.155Z,100375.20
2018-01-06T23:21:01.635Z,100376.75
2018-01-06T23:23:29.158Z,100377.16
2018-01-06T23:25:56.641Z,100385.08
2018-01-06T23:28:24.175Z,100384.95
2018-01-06T23:30:51.662Z,100391.27
2018-01-06T23:33:19.169Z,100388.73
2018-01-06T23:35:46.658Z,100395.33
2018-01-06T23:38:14.129Z,100400.84
2018-01-06T23:40:51.334Z,100399.80
2018-01-06T23:43:18.843Z,100401.55
2018-01-06T23:45:46.409Z,100406.70
2018-01-06T23:48:13.946Z,100407.45
2018-01-06T23:50:41.425Z,100412.37
2018-01-06T23:53:08.963Z,100413.95
2018-01-06T23:55:36.457Z,100423.58
2018-01-06T23:58:03.934Z,100411.14
